createdAt,value
2018-09-11T00:01:58.541Z,98393.52
2018-09-11T00:04:26.232Z,98386.59
2018-09-11T00:06:53.900Z,98382.77
2018-09-11T00:09:21.595Z,98395.63
2018-09-11T00:11:49.272Z,98388.22
2018-09-11T00:14:16.945Z,98386.59
2018-09-11T00:16:44.622Z,98387.75
2018-09-11T00:19:12.461Z,98390.23
2018-09-11T00:21:40.309Z,98388.16
2018-09-11T00:24:08.498Z,98392.92
2018-09-11T00:26:36.675Z,98397.67
2018-09-11T00:29:04.825Z,98402.28
2018-09-11T00:31:32.852Z,98398.48
2018-09-11T00:34:00.578Z,98397.48
2018-09-11T00:36:28.559Z,98393.68
2018-09-11T00:38:56.562Z,98402.52
2018-09-11T00:41:24.405Z,98401.38
2018-09-11T00:43:52.309Z,98405.58
2018-09-11T00:46:20.278Z,98405.33
2018-09-11T00:48:48.435Z,98398.05
2018-09-11T00:51:16.676Z,98387.19
2018-09-11T00:53:44.647Z,98394.74
2018-09-11T00:56:12.446Z,98402.72
2018-09-11T00:58:40.541Z,98401.70
2018-09-11T01:01:08.423Z,98403.88
2018-09-11T01:03:36.314Z,98405.16
2018-09-11T01:06:04.317Z,98405.06
2018-09-11T01:08:32.134Z,98403.41
2018-09-11T01:11:00.359Z,98404.56
2018-09-11T01:13:28.288Z,98413.18
2018-09-11T01:15:56.179Z,98414.59
2018-09-11T01:18:24.016Z,98425.80
2018-09-11T01:20:51.876Z,98426.05
2018-09-11T01:23:19.771Z,98428.36
2018-09-11T01:25:47.719Z,98431.08
2018-09-11T01:28:15.700Z,98433.98
2018-09-11T01:30:43.602Z,98432.50
2018-09-11T01:33:11.500Z,98430.41
2018-09-11T01:35:39.300Z,98434.20
2018-09-11T01:38:07.404Z,98435.36
2018-09-11T01:40:35.238Z,98428.10
2018-09-11T01:43:03.111Z,98433.23
2018-09-11T01:45:30.844Z,98431.59
2018-09-11T01:47:58.494Z,98424.09
2018-09-11T01:50:26.125Z,98427.55
2018-09-11T01:52:53.828Z,98418.61
2018-09-11T01:55:21.467Z,98416.85
2018-09-11T01:57:49.141Z,98419.41
2018-09-11T02:00:17.874Z,98427.38
2018-09-11T02:02:46.345Z,98420.61
2018-09-11T02:05:14.239Z,98421.78
2018-09-11T02:07:42.882Z,98417.95
2018-09-11T02:10:11.047Z,98420.64
2018-09-11T02:12:39.108Z,98421.83
2018-09-11T02:15:07.645Z,98422.98
2018-09-11T02:17:35.867Z,98416.23
2018-09-11T02:20:03.990Z,98415.73
2018-09-11T02:22:31.867Z,98418.44
2018-09-11T02:24:59.690Z,98419.72
2018-09-11T02:27:27.752Z,98418.83
2018-09-11T02:29:55.558Z,98417.05
2018-09-11T02:32:23.607Z,98420.88
2018-09-11T02:34:51.467Z,98418.23
2018-09-11T02:37:19.474Z,98414.91
2018-09-11T02:39:47.428Z,98407.02
2018-09-11T02:42:15.308Z,98399.61
2018-09-11T02:44:43.441Z,98399.61
2018-09-11T02:47:11.536Z,98403.47
2018-09-11T02:49:39.408Z,98406.53
2018-09-11T02:52:07.629Z,98399.00
2018-09-11T02:54:35.453Z,98396.83
2018-09-11T02:57:03.337Z,98393.37
2018-09-11T02:59:31.256Z,98397.88
2018-09-11T03:01:59.161Z,98399.03
2018-09-11T03:04:26.937Z,98399.28
2018-09-11T03:06:54.852Z,98401.55
2018-09-11T03:09:22.676Z,98403.38
2018-09-11T03:11:50.460Z,98407.84
2018-09-11T03:14:18.353Z,98411.64
2018-09-11T03:16:46.190Z,98417.42
2018-09-11T03:19:14.061Z,98414.48
2018-09-11T03:21:41.962Z,98407.10
2018-09-11T03:24:09.816Z,98407.48
2018-09-11T03:26:37.666Z,98402.02
2018-09-11T03:29:05.755Z,98407.03
2018-09-11T03:31:33.633Z,98406.51
2018-09-11T03:34:01.477Z,98403.85
2018-09-11T03:36:29.384Z,98389.84
2018-09-11T03:38:57.240Z,98390.22
2018-09-11T03:41:25.302Z,98397.03
2018-09-11T03:43:53.197Z,98399.58
2018-09-11T03:46:21.038Z,98406.11
2018-09-11T03:48:49.009Z,98403.67
2018-09-11T03:51:16.809Z,98397.06
2018-09-11T03:53:44.827Z,98396.80
2018-09-11T03:56:12.629Z,98398.84
2018-09-11T03:58:40.514Z,98398.48
2018-09-11T04:01:08.493Z,98403.95
2018-09-11T04:03:36.624Z,98407.37
2018-09-11T04:06:04.446Z,98408.02
2018-09-11T04:08:32.288Z,98411.20
2018-09-11T04:11:00.180Z,98409.80
2018-09-11T04:13:28.066Z,98411.20
2018-09-11T04:15:55.894Z,98410.15
2018-09-11T04:18:23.757Z,98414.38
2018-09-11T04:20:51.693Z,98417.55
2018-09-11T04:23:19.614Z,98415.89
2018-09-11T04:25:47.501Z,98416.05
2018-09-11T04:28:15.516Z,98415.67
2018-09-11T04:30:43.414Z,98417.47
2018-09-11T04:33:11.220Z,98423.70
2018-09-11T04:35:39.125Z,98419.10
2018-09-11T04:38:07.147Z,98419.48
2018-09-11T04:40:34.838Z,98420.00
2018-09-11T04:43:02.695Z,98418.22
2018-09-11T04:45:30.482Z,98419.87
2018-09-11T04:47:58.375Z,98419.61
2018-09-11T04:50:26.313Z,98419.73
2018-09-11T04:52:54.112Z,98424.20
2018-09-11T04:55:22.089Z,98424.56
2018-09-11T04:57:49.988Z,98430.44
2018-09-11T05:00:17.805Z,98437.45
2018-09-11T05:02:45.675Z,98428.25
2018-09-11T05:05:13.683Z,98439.47
2018-09-11T05:07:41.606Z,98428.00
2018-09-11T05:10:09.494Z,98432.22
2018-09-11T05:12:37.821Z,98434.14
2018-09-11T05:15:05.846Z,98438.08
2018-09-11T05:17:33.707Z,98440.38
2018-09-11T05:20:01.727Z,98443.70
2018-09-11T05:22:29.578Z,98448.55
2018-09-11T05:24:57.532Z,98456.72
2018-09-11T05:27:25.618Z,98455.68
2018-09-11T05:29:53.453Z,98452.23
2018-09-11T05:32:21.345Z,98459.01
2018-09-11T05:34:49.242Z,98463.95
2018-09-11T05:37:17.081Z,98466.12
2018-09-11T05:39:45.054Z,98469.18
2018-09-11T05:42:13.262Z,98474.05
2018-09-11T05:44:41.206Z,98477.33
2018-09-11T05:47:09.104Z,98478.09
2018-09-11T05:49:37.058Z,98478.61
2018-09-11T05:52:05.306Z,98483.05
2018-09-11T05:54:33.186Z,98483.03
2018-09-11T05:57:00.998Z,98489.94
2018-09-11T05:59:28.860Z,98487.61
2018-09-11T06:01:57.024Z,98489.77
2018-09-11T06:04:24.809Z,98483.22
2018-09-11T06:06:52.772Z,98481.56
2018-09-11T06:09:20.725Z,98482.05
2018-09-11T06:11:48.644Z,98483.03
2018-09-11T06:14:16.785Z,98483.13
2018-09-11T06:16:44.649Z,98482.30
2018-09-11T06:19:12.450Z,98485.91
2018-09-11T06:21:40.300Z,98472.97
2018-09-11T06:24:08.176Z,98475.69
2018-09-11T06:26:36.197Z,98477.73
2018-09-11T06:29:04.229Z,98477.47
2018-09-11T06:31:32.273Z,98475.56
2018-09-11T06:34:00.195Z,98477.73
2018-09-11T06:36:28.106Z,98482.33
2018-09-11T06:38:56.095Z,98483.73
2018-09-11T06:41:23.987Z,98485.52
2018-09-11T06:43:51.909Z,98482.58
2018-09-11T06:46:19.815Z,98480.82
2018-09-11T06:48:47.699Z,98487.66
2018-09-11T06:51:15.556Z,98492.67
2018-09-11T06:53:43.410Z,98497.89
2018-09-11T06:56:11.284Z,98491.39
2018-09-11T06:58:39.164Z,98493.97
2018-09-11T07:01:07.039Z,98496.12
2018-09-11T07:03:35.062Z,98501.38
2018-09-11T07:06:02.866Z,98498.52
2018-09-11T07:08:30.845Z,98503.83
2018-09-11T07:10:58.888Z,98499.73
2018-09-11T07:13:26.873Z,98492.84
2018-09-11T07:15:54.954Z,98491.58
2018-09-11T07:18:23.141Z,98491.15
2018-09-11T07:20:51.126Z,98488.36
2018-09-11T07:23:18.996Z,98484.53
2018-09-11T07:25:47.058Z,98484.14
2018-09-11T07:28:14.924Z,98484.03
2018-09-11T07:30:42.837Z,98482.16
2018-09-11T07:33:10.770Z,98482.84
2018-09-11T07:35:38.840Z,98479.44
2018-09-11T07:38:06.695Z,98482.26
2018-09-11T07:40:34.762Z,98481.48
2018-09-11T07:43:02.638Z,98481.45
2018-09-11T07:45:30.519Z,98483.01
2018-09-11T07:47:58.334Z,98480.86
2018-09-11T07:50:26.259Z,98482.91
2018-09-11T07:52:54.319Z,98470.59
2018-09-11T07:55:22.285Z,98473.56
2018-09-11T07:57:50.191Z,98482.81
2018-09-11T08:00:17.968Z,98474.64
2018-09-11T08:02:46.243Z,98475.41
2018-09-11T08:05:14.183Z,98474.42
2018-09-11T08:07:41.995Z,98470.20
2018-09-11T08:10:09.947Z,98469.79
2018-09-11T08:12:37.987Z,98470.95
2018-09-11T08:15:06.628Z,98470.59
2018-09-11T08:17:34.660Z,98467.81
2018-09-11T08:20:02.922Z,98462.86
2018-09-11T08:22:30.840Z,98465.92
2018-09-11T08:24:58.741Z,98461.95
2018-09-11T08:27:26.675Z,98458.99
2018-09-11T08:29:54.855Z,98455.57
2018-09-11T08:32:22.749Z,98454.70
2018-09-11T08:34:50.610Z,98459.69
2018-09-11T08:37:18.579Z,98450.28
2018-09-11T08:39:46.600Z,98456.02
2018-09-11T08:42:14.509Z,98452.46
2018-09-11T08:44:42.385Z,98462.59
2018-09-11T08:47:10.413Z,98468.97
2018-09-11T08:49:38.529Z,98464.80
2018-09-11T08:52:07.146Z,98464.80
2018-09-11T08:54:35.680Z,98457.22
2018-09-11T08:57:03.787Z,98460.38
2018-09-11T08:59:31.648Z,98455.20
2018-09-11T09:01:59.552Z,98465.11
2018-09-11T09:04:27.564Z,98464.70
2018-09-11T09:06:55.523Z,98458.54
2018-09-11T09:09:23.577Z,98454.08
2018-09-11T09:11:51.719Z,98466.12
2018-09-11T09:14:19.644Z,98459.80
2018-09-11T09:16:48.091Z,98458.39
2018-09-11T09:19:16.142Z,98460.80
2018-09-11T09:21:44.084Z,98448.18
2018-09-11T09:24:12.010Z,98445.38
2018-09-11T09:26:40.068Z,98440.17
2018-09-11T09:29:08.127Z,98436.78
2018-09-11T09:31:36.138Z,98435.86
2018-09-11T09:34:04.149Z,98433.88
2018-09-11T09:36:32.036Z,98425.06
2018-09-11T09:39:00.295Z,98423.00
2018-09-11T09:41:28.105Z,98426.36
2018-09-11T09:43:56.337Z,98419.42
2018-09-11T09:46:24.307Z,98423.36
2018-09-11T09:48:52.218Z,98428.02
2018-09-11T09:51:20.356Z,98431.17
2018-09-11T09:53:48.232Z,98423.05
2018-09-11T09:56:16.025Z,98416.66
2018-09-11T09:58:43.894Z,98408.64
2018-09-11T10:01:17.281Z,98417.41
2018-09-11T10:03:45.068Z,98430.80
2018-09-11T10:06:12.934Z,98437.30
2018-09-11T10:08:40.947Z,98433.56
2018-09-11T10:11:08.848Z,98440.35
2018-09-11T10:13:36.755Z,98435.92
2018-09-11T10:16:04.692Z,98430.63
2018-09-11T10:18:33.082Z,98427.03
2018-09-11T10:21:00.941Z,98415.81
2018-09-11T10:23:28.976Z,98421.36
2018-09-11T10:25:56.909Z,98422.28
2018-09-11T10:28:24.807Z,98423.34
2018-09-11T10:30:52.784Z,98420.83
2018-09-11T10:33:20.616Z,98426.02
2018-09-11T10:35:48.694Z,98403.77
2018-09-11T10:38:16.596Z,98410.97
2018-09-11T10:40:54.254Z,98408.08
2018-09-11T10:43:22.438Z,98405.14
2018-09-11T10:45:50.338Z,98388.52
2018-09-11T10:48:18.522Z,98388.96
2018-09-11T10:50:46.421Z,98395.61
2018-09-11T10:53:14.331Z,98399.00
2018-09-11T10:55:42.217Z,98396.59
2018-09-11T10:58:09.978Z,98386.23
2018-09-11T11:00:37.651Z,98385.45
2018-09-11T11:03:05.561Z,98381.89
2018-09-11T11:05:33.266Z,98378.47
2018-09-11T11:08:00.949Z,98388.62
2018-09-11T11:10:29.107Z,98371.86
2018-09-11T11:12:56.825Z,98382.56
2018-09-11T11:15:24.874Z,98368.02
2018-09-11T11:17:52.770Z,98363.77
2018-09-11T11:20:21.010Z,98368.34
2018-09-11T11:22:48.940Z,98359.40
2018-09-11T11:25:16.925Z,98355.50
2018-09-11T11:27:44.803Z,98358.79
2018-09-11T11:30:12.639Z,98350.45
2018-09-11T11:32:40.633Z,98357.28
2018-09-11T11:35:08.589Z,98365.95
2018-09-11T11:37:36.727Z,98363.97
2018-09-11T11:40:04.976Z,98354.54
2018-09-11T11:42:32.862Z,98350.17
2018-09-11T11:45:00.782Z,98345.80
2018-09-11T11:47:28.553Z,98342.43
2018-09-11T11:49:56.503Z,98350.13
2018-09-11T11:52:24.406Z,98355.48
2018-09-11T11:54:52.477Z,98351.27
2018-09-11T11:57:20.279Z,98357.33
2018-09-11T11:59:48.224Z,98360.14
2018-09-11T12:02:16.195Z,98364.67
2018-09-11T12:04:44.143Z,98351.09
2018-09-11T12:07:11.837Z,98344.36
2018-09-11T12:09:39.517Z,98342.01
2018-09-11T12:12:07.252Z,98355.02
2018-09-11T12:14:34.893Z,98336.64
2018-09-11T12:17:02.560Z,98337.97
2018-09-11T12:19:30.322Z,98342.89
2018-09-11T12:21:57.983Z,98348.60
2018-09-11T12:24:25.658Z,98359.47
2018-09-11T12:26:53.868Z,98349.50
2018-09-11T12:29:21.562Z,98347.20
2018-09-11T12:31:49.253Z,98339.70
2018-09-11T12:34:16.980Z,98337.13
2018-09-11T12:36:44.640Z,98344.66
2018-09-11T12:39:12.318Z,98353.02
2018-09-11T12:41:40.257Z,98354.95
2018-09-11T12:44:08.057Z,98354.30
2018-09-11T12:46:36.177Z,98339.17
2018-09-11T12:49:04.148Z,98343.62
2018-09-11T12:51:32.178Z,98349.87
2018-09-11T12:54:00.167Z,98337.44
2018-09-11T12:56:28.163Z,98347.04
2018-09-11T12:58:55.999Z,98346.72
2018-09-11T13:01:23.967Z,98351.20
2018-09-11T13:03:52.062Z,98351.97
2018-09-11T13:06:19.940Z,98346.17
2018-09-11T13:08:47.798Z,98340.54
2018-09-11T13:11:15.697Z,98358.10
2018-09-11T13:13:43.953Z,98345.47
2018-09-11T13:16:12.515Z,98348.76
2018-09-11T13:18:40.435Z,98358.59
2018-09-11T13:21:08.485Z,98357.13
2018-09-11T13:23:36.162Z,98361.23
2018-09-11T13:26:03.976Z,98357.45
2018-09-11T13:28:31.653Z,98369.69
2018-09-11T13:30:59.330Z,98369.99
2018-09-11T13:33:27.197Z,98362.86
2018-09-11T13:35:55.007Z,98368.70
2018-09-11T13:38:22.933Z,98358.35
2018-09-11T13:40:51.016Z,98357.80
2018-09-11T13:43:18.987Z,98358.96
2018-09-11T13:45:46.801Z,98361.42
2018-09-11T13:48:15.041Z,98353.77
2018-09-11T13:50:42.782Z,98361.17
2018-09-11T13:53:10.438Z,98362.14
2018-09-11T13:55:38.253Z,98356.80
2018-09-11T13:58:05.925Z,98351.65
2018-09-11T14:00:33.570Z,98346.53
2018-09-11T14:03:01.311Z,98353.56
2018-09-11T14:05:29.350Z,98350.96
2018-09-11T14:07:57.526Z,98338.27
2018-09-11T14:10:25.553Z,98339.36
2018-09-11T14:12:53.546Z,98349.33
2018-09-11T14:15:21.353Z,98349.16
2018-09-11T14:17:49.072Z,98345.16
2018-09-11T14:20:16.743Z,98339.68
2018-09-11T14:22:44.442Z,98329.38
2018-09-11T14:25:12.161Z,98335.48
2018-09-11T14:27:39.834Z,98333.34
2018-09-11T14:30:07.545Z,98341.20
2018-09-11T14:32:35.271Z,98331.58
2018-09-11T14:35:02.955Z,98323.86
2018-09-11T14:37:30.637Z,98321.67
2018-09-11T14:39:58.313Z,98321.61
2018-09-11T14:42:25.983Z,98319.48
2018-09-11T14:44:53.668Z,98318.36
2018-09-11T14:47:21.380Z,98317.75
2018-09-11T14:49:49.118Z,98311.72
2018-09-11T14:52:16.788Z,98313.62
2018-09-11T14:54:44.475Z,98300.85
2018-09-11T14:57:12.222Z,98296.20
2018-09-11T14:59:39.852Z,98302.84
2018-09-11T15:02:07.552Z,98297.58
2018-09-11T15:04:35.212Z,98295.38
2018-09-11T15:07:02.924Z,98300.96
2018-09-11T15:09:30.636Z,98302.96
2018-09-11T15:11:58.305Z,98302.59
2018-09-11T15:14:25.992Z,98299.30
2018-09-11T15:16:53.689Z,98302.42
2018-09-11T15:19:21.398Z,98295.45
2018-09-11T15:21:49.064Z,98295.57
2018-09-11T15:24:16.781Z,98294.94
2018-09-11T15:26:44.430Z,98304.16
2018-09-11T15:29:12.090Z,98303.27
2018-09-11T15:31:39.813Z,98286.69
2018-09-11T15:34:07.485Z,98289.08
2018-09-11T15:36:35.186Z,98280.30
2018-09-11T15:39:03.116Z,98282.97
2018-09-11T15:41:30.808Z,98283.78
2018-09-11T15:43:58.498Z,98282.52
2018-09-11T15:46:26.165Z,98286.86
2018-09-11T15:48:53.831Z,98300.06
2018-09-11T15:51:21.504Z,98287.70
2018-09-11T15:53:49.195Z,98300.39
2018-09-11T15:56:16.859Z,98294.14
2018-09-11T15:58:44.580Z,98302.55
2018-09-11T16:01:12.616Z,98296.05
2018-09-11T16:03:40.393Z,98288.61
2018-09-11T16:06:08.178Z,98291.73
2018-09-11T16:08:36.179Z,98291.75
2018-09-11T16:11:04.126Z,98289.09
2018-09-11T16:13:31.987Z,98285.97
2018-09-11T16:15:59.995Z,98279.00
2018-09-11T16:18:27.818Z,98283.39
2018-09-11T16:20:55.615Z,98275.80
2018-09-11T16:23:23.843Z,98276.24
2018-09-11T16:25:51.882Z,98278.50
2018-09-11T16:28:19.751Z,98274.31
2018-09-11T16:30:47.898Z,98272.59
2018-09-11T16:33:15.965Z,98273.92
2018-09-11T16:35:43.868Z,98276.06
2018-09-11T16:38:12.041Z,98270.02
2018-09-11T16:40:40.010Z,98269.66
2018-09-11T16:43:07.819Z,98267.89
2018-09-11T16:45:35.872Z,98268.55
2018-09-11T16:48:03.763Z,98262.02
2018-09-11T16:50:31.840Z,98270.54
2018-09-11T16:52:59.653Z,98267.53
2018-09-11T16:55:27.557Z,98271.89
2018-09-11T16:57:55.477Z,98275.30
2018-09-11T17:00:23.585Z,98280.11
2018-09-11T17:02:51.600Z,98273.77
2018-09-11T17:05:19.468Z,98276.13
2018-09-11T17:07:47.379Z,98272.25
2018-09-11T17:10:15.202Z,98269.67
2018-09-11T17:12:43.493Z,98269.69
2018-09-11T17:15:11.409Z,98268.64
2018-09-11T17:17:39.433Z,98270.70
2018-09-11T17:20:07.320Z,98270.98
2018-09-11T17:22:35.205Z,98273.44
2018-09-11T17:25:03.565Z,98272.67
2018-09-11T17:27:31.522Z,98279.69
2018-09-11T17:29:59.446Z,98280.16
2018-09-11T17:32:27.533Z,98282.78
2018-09-11T17:34:55.377Z,98276.40
2018-09-11T17:37:23.283Z,98285.36
2018-09-11T17:39:51.214Z,98284.77
2018-09-11T17:42:19.168Z,98283.53
2018-09-11T17:44:47.066Z,98289.30
2018-09-11T17:47:14.901Z,98286.09
2018-09-11T17:49:42.877Z,98290.62
2018-09-11T17:52:11.090Z,98292.63
2018-09-11T17:54:39.445Z,98295.02
2018-09-11T17:57:07.416Z,98301.52
2018-09-11T17:59:35.390Z,98298.47
2018-09-11T18:02:03.575Z,98301.54
2018-09-11T18:04:31.513Z,98296.75
2018-09-11T18:06:59.452Z,98307.39
2018-09-11T18:09:27.651Z,98305.38
2018-09-11T18:11:55.582Z,98314.27
2018-09-11T18:14:23.575Z,98311.00
2018-09-11T18:16:51.643Z,98313.13
2018-09-11T18:19:19.853Z,98313.62
2018-09-11T18:21:47.783Z,98317.29
2018-09-11T18:24:15.929Z,98320.70
2018-09-11T18:26:43.793Z,98328.22
2018-09-11T18:29:11.715Z,98332.57
2018-09-11T18:31:40.486Z,98333.08
2018-09-11T18:34:08.637Z,98333.33
2018-09-11T18:36:36.572Z,98338.08
2018-09-11T18:39:06.319Z,98333.55
2018-09-11T18:41:35.113Z,98338.52
2018-09-11T18:44:03.330Z,98338.98
2018-09-11T18:46:31.749Z,98346.59
2018-09-11T18:48:59.760Z,98342.23
2018-09-11T18:51:27.835Z,98346.11
2018-09-11T18:53:55.817Z,98350.66
2018-09-11T18:56:23.663Z,98354.86
2018-09-11T18:58:51.479Z,98352.48
2018-09-11T19:01:19.317Z,98350.45
2018-09-11T19:03:47.178Z,98354.51
2018-09-11T19:06:15.539Z,98357.64
2018-09-11T19:08:43.450Z,98354.50
2018-09-11T19:11:11.464Z,98356.11
2018-09-11T19:13:39.661Z,98348.92
2018-09-11T19:16:07.564Z,98358.20
2018-09-11T19:18:36.837Z,98366.58
2018-09-11T19:21:04.780Z,98366.47
2018-09-11T19:23:33.220Z,98367.42
2018-09-11T19:26:01.678Z,98373.76
2018-09-11T19:28:29.499Z,98374.41
2018-09-11T19:30:57.371Z,98371.02
2018-09-11T19:33:25.243Z,98370.08
2018-09-11T19:35:53.237Z,98374.00
2018-09-11T19:38:21.135Z,98378.78
2018-09-11T19:40:49.210Z,98381.61
2018-09-11T19:43:17.284Z,98377.80
2018-09-11T19:45:45.400Z,98370.84
2018-09-11T19:48:13.579Z,98381.61
2018-09-11T19:50:41.658Z,98381.73
2018-09-11T19:53:09.533Z,98380.31
2018-09-11T19:55:37.557Z,98385.31
2018-09-11T19:58:05.457Z,98388.24
2018-09-11T20:00:33.338Z,98389.95
2018-09-11T20:03:01.202Z,98391.14
2018-09-11T20:05:29.227Z,98390.26
2018-09-11T20:07:57.362Z,98395.16
2018-09-11T20:10:25.231Z,98400.90
2018-09-11T20:12:53.235Z,98399.88
2018-09-11T20:15:21.187Z,98405.97
2018-09-11T20:17:49.054Z,98399.98
2018-09-11T20:20:17.072Z,98398.92
2018-09-11T20:22:44.916Z,98397.80
2018-09-11T20:25:12.855Z,98399.55
2018-09-11T20:27:41.050Z,98395.31
2018-09-11T20:30:09.872Z,98400.19
2018-09-11T20:32:37.920Z,98403.33
2018-09-11T20:35:05.982Z,98403.02
2018-09-11T20:37:33.932Z,98404.38
2018-09-11T20:40:01.730Z,98407.41
2018-09-11T20:42:29.746Z,98406.53
2018-09-11T20:44:57.930Z,98405.44
2018-09-11T20:47:25.885Z,98410.20
2018-09-11T20:49:53.763Z,98413.23
2018-09-11T20:52:21.706Z,98415.58
2018-09-11T20:54:49.672Z,98411.02
2018-09-11T20:57:17.569Z,98417.14
2018-09-11T20:59:45.629Z,98423.60
2018-09-11T21:02:13.495Z,98422.80
2018-09-11T21:04:41.548Z,98421.60
2018-09-11T21:07:09.540Z,98426.92
2018-09-11T21:09:37.476Z,98422.89
2018-09-11T21:12:05.310Z,98423.53
2018-09-11T21:14:33.154Z,98425.67
2018-09-11T21:17:01.129Z,98425.50
2018-09-11T21:19:29.313Z,98432.20
2018-09-11T21:21:57.210Z,98426.76
2018-09-11T21:24:25.152Z,98432.52
2018-09-11T21:26:52.986Z,98428.02
2018-09-11T21:29:20.909Z,98429.19
2018-09-11T21:31:50.431Z,98428.53
2018-09-11T21:34:18.429Z,98429.13
2018-09-11T21:36:46.321Z,98428.02
2018-09-11T21:39:14.219Z,98426.59
2018-09-11T21:41:42.351Z,98431.48
2018-09-11T21:44:10.647Z,98432.00
2018-09-11T21:46:38.541Z,98436.91
2018-09-11T21:49:06.351Z,98430.67
2018-09-11T21:51:34.194Z,98431.63
2018-09-11T21:54:02.188Z,98431.44
2018-09-11T21:56:30.169Z,98430.59
2018-09-11T21:58:58.113Z,98432.73
2018-09-11T22:01:31.621Z,98433.20
2018-09-11T22:03:59.799Z,98435.38
2018-09-11T22:06:27.751Z,98435.59
2018-09-11T22:08:55.619Z,98435.59
2018-09-11T22:11:23.510Z,98438.52
2018-09-11T22:13:51.557Z,98437.76
2018-09-11T22:16:19.809Z,98432.56
2018-09-11T22:18:48.220Z,98432.92
2018-09-11T22:21:16.232Z,98436.34
2018-09-11T22:23:44.156Z,98440.22
2018-09-11T22:26:12.147Z,98430.14
2018-09-11T22:28:40.343Z,98429.26
2018-09-11T22:31:08.264Z,98430.14
2018-09-11T22:33:36.506Z,98423.41
2018-09-11T22:36:04.856Z,98427.11
2018-09-11T22:38:32.916Z,98424.02
2018-09-11T22:41:00.845Z,98428.20
2018-09-11T22:43:28.701Z,98424.28
2018-09-11T22:45:56.744Z,98424.92
2018-09-11T22:48:24.857Z,98419.55
2018-09-11T22:50:52.660Z,98421.70
2018-09-11T22:53:20.545Z,98416.83
2018-09-11T22:55:48.663Z,98417.26
2018-09-11T22:58:16.477Z,98413.03
2018-09-11T23:00:44.565Z,98414.89
2018-09-11T23:03:12.522Z,98412.84
2018-09-11T23:05:40.653Z,98414.00
2018-09-11T23:08:08.627Z,98413.31
2018-09-11T23:10:37.048Z,98404.65
2018-09-11T23:13:04.998Z,98412.45
2018-09-11T23:15:33.226Z,98408.32
2018-09-11T23:18:01.043Z,98411.30
2018-09-11T23:20:29.029Z,98405.66
2018-09-11T23:22:56.917Z,98402.16
2018-09-11T23:25:24.966Z,98396.77
2018-09-11T23:27:52.850Z,98394.97
2018-09-11T23:30:20.735Z,98390.86
2018-09-11T23:32:48.583Z,98389.17
2018-09-11T23:35:16.725Z,98391.86
2018-09-11T23:37:44.585Z,98388.84
2018-09-11T23:40:12.432Z,98393.08
2018-09-11T23:42:40.277Z,98388.00
2018-09-11T23:45:08.436Z,98390.50
2018-09-11T23:47:36.442Z,98380.52
2018-09-11T23:50:04.482Z,98379.87
2018-09-11T23:52:32.378Z,98386.16
2018-09-11T23:55:00.498Z,98381.69
2018-09-11T23:57:28.281Z,98385.31
2018-09-11T23:59:56.407Z,98382.69
